Time;durP1;ratioP1;P1;durP2;ratioP2;P2;SDS_P1;SDS_P2;PMS_P1;PMS_P2;Temp;Humidity;BMP_temperature;BMP_pressure;BME280_temperature;BME280_humidity;BME280_pressure;Samples;Min_cycle;Max_cycle;Signal;HPM_P1;HPM_P2
2022/07/17 00:01:42;;;;;;;4.43;4.13;;;;;;;12.81;82.11;102492.09;5053304;28;20473;-46
2022/07/17 00:04:09;;;;;;;5.57;4.00;;;;;;;12.81;82.46;102484.06;5053762;28;20435;-43
2022/07/17 00:06:37;;;;;;;4.53;4.10;;;;;;;12.78;82.48;102485.25;5052735;28;20446;-43
2022/07/17 00:09:06;;;;;;;5.37;4.23;;;;;;;12.77;82.28;102488.94;5053994;28;20447;-46
2022/07/17 00:11:34;;;;;;;5.57;4.00;;;;;;;12.74;82.66;102489.25;5053284;28;20495;-46
2022/07/17 00:14:02;;;;;;;4.13;3.73;;;;;;;12.71;82.37;102492.28;5053673;28;20442;-47
2022/07/17 00:16:30;;;;;;;5.63;4.00;;;;;;;12.72;82.78;102488.59;5067086;23;20583;-46
2022/07/17 00:18:59;;;;;;;8.07;4.53;;;;;;;12.67;82.34;102480.22;5033586;28;20428;-45
2022/07/17 00:21:27;;;;;;;4.43;4.13;;;;;;;12.65;82.83;102472.38;5033176;28;20456;-45
2022/07/17 00:23:55;;;;;;;7.83;4.10;;;;;;;12.61;82.84;102478.22;5033506;28;20523;-45
2022/07/17 00:26:23;;;;;;;6.40;4.30;;;;;;;12.59;82.61;102482.91;5033508;28;20534;-45
2022/07/17 00:28:50;;;;;;;4.37;4.17;;;;;;;12.55;82.77;102471.69;5033340;28;20458;-51
2022/07/17 00:31:18;;;;;;;10.80;4.80;;;;;;;12.51;83.41;102475.72;5033079;28;20462;-45
2022/07/17 00:33:46;;;;;;;4.53;3.97;;;;;;;12.49;83.63;102471.53;5033160;28;20444;-44
2022/07/17 00:36:15;;;;;;;10.93;4.57;;;;;;;12.47;83.60;102466.34;5033361;28;20809;-44
2022/07/17 00:38:43;;;;;;;4.50;4.10;;;;;;;12.44;83.69;102465.84;5033257;28;20531;-44
2022/07/17 00:41:14;;;;;;;4.30;3.90;;;;;;;12.41;83.75;102467.03;5032887;28;20479;-48
2022/07/17 00:43:42;;;;;;;5.57;5.10;;;;;;;12.39;84.01;102460.16;5031973;28;20534;-49
2022/07/17 00:46:09;;;;;;;4.97;4.30;;;;;;;12.39;84.24;102457.50;5031954;28;20448;-50
2022/07/17 00:48:37;;;;;;;4.87;4.47;;;;;;;12.39;84.72;102460.16;5031945;28;20447;-48
2022/07/17 00:51:05;;;;;;;8.00;4.27;;;;;;;12.39;85.09;102457.50;5031137;28;20494;-45
2022/07/17 00:53:36;;;;;;;6.93;4.40;;;;;;;12.39;85.33;102461.00;5032137;28;20516;-46
2022/07/17 00:56:05;;;;;;;4.77;3.67;;;;;;;12.39;85.09;102468.19;5032790;28;20514;-47
2022/07/17 00:58:36;;;;;;;3.83;3.53;;;;;;;12.37;85.53;102456.81;5033108;28;20527;-48
2022/07/17 01:01:06;;;;;;;3.73;3.43;;;;;;;12.36;85.84;102464.00;5032619;28;20766;-47
2022/07/17 01:03:34;;;;;;;3.90;3.60;;;;;;;12.33;85.55;102460.84;5032600;28;20985;-45
2022/07/17 01:06:03;;;;;;;6.90;3.70;;;;;;;12.31;85.40;102471.69;5032748;28;20538;-45
2022/07/17 01:08:30;;;;;;;7.80;3.70;;;;;;;12.29;85.74;102471.03;5031071;28;20527;-44
2022/07/17 01:11:00;;;;;;;4.77;3.77;;;;;;;12.26;85.90;102471.34;5030949;28;20906;-44
2022/07/17 01:13:28;;;;;;;9.80;4.17;;;;;;;12.25;85.95;102467.00;5031146;28;20508;-47
2022/07/17 01:15:55;;;;;;;4.47;4.10;;;;;;;12.22;86.05;102467.31;5030988;28;20996;-51
2022/07/17 01:18:23;;;;;;;4.63;4.17;;;;;;;12.20;86.24;102474.69;5031067;28;20440;-46
2022/07/17 01:20:51;;;;;;;4.40;4.10;;;;;;;12.17;86.55;102472.34;5031166;28;20527;-45
2022/07/17 01:23:21;;;;;;;4.60;4.30;;;;;;;12.16;87.07;102471.50;5030485;28;20476;-45
2022/07/17 01:25:49;;;;;;;5.30;4.37;;;;;;;12.14;87.22;102476.19;5032138;28;20480;-45
2022/07/17 01:28:17;;;;;;;4.33;3.50;;;;;;;12.14;87.60;102473.50;5032554;28;20535;-47
2022/07/17 01:30:50;;;;;;;5.23;4.30;;;;;;;12.15;87.61;102469.84;5032339;28;20485;-47
2022/07/17 01:33:19;;;;;;;3.90;3.70;;;;;;;12.17;87.99;102472.34;5031556;28;20452;-45
2022/07/17 01:35:48;;;;;;;5.57;3.70;;;;;;;12.19;87.96;102473.84;5032288;28;20543;-44
2022/07/17 01:38:16;;;;;;;4.60;4.30;;;;;;;12.22;88.41;102475.34;5032389;28;20436;-47
2022/07/17 01:40:45;;;;;;;4.40;3.37;;;;;;;12.24;88.34;102478.72;5032283;28;20588;-45
2022/07/17 01:43:12;;;;;;;4.20;3.90;;;;;;;12.26;88.85;102475.84;5031503;28;20462;-49
2022/07/17 01:45:40;;;;;;;4.20;3.90;;;;;;;12.27;88.81;102477.53;5032071;28;20483;-45
2022/07/17 01:48:08;;;;;;;5.93;4.10;;;;;;;12.28;89.01;102479.19;5031971;28;20527;-46
2022/07/17 01:50:36;;;;;;;4.13;3.83;;;;;;;12.30;88.74;102486.09;5031892;28;20519;-44
2022/07/17 01:53:03;;;;;;;5.50;3.47;;;;;;;12.32;88.82;102480.56;5031249;28;20894;-45
2022/07/17 01:55:31;;;;;;;8.00;3.97;;;;;;;12.33;88.72;102485.75;5031946;28;20434;-47
2022/07/17 01:58:00;;;;;;;4.03;3.60;;;;;;;12.35;88.69;102490.91;5031957;28;20846;-47
2022/07/17 02:00:28;;;;;;;3.90;3.60;;;;;;;12.36;88.28;102495.28;5031441;28;20467;-46
2022/07/17 02:02:56;;;;;;;4.17;3.87;;;;;;;12.36;88.70;102490.78;5029747;28;20494;-45
2022/07/17 02:05:24;;;;;;;4.23;3.93;;;;;;;12.33;88.38;102495.59;5030731;28;20440;-46
2022/07/17 02:07:51;;;;;;;6.80;3.67;;;;;;;12.31;88.30;102487.72;5030498;28;20523;-46
2022/07/17 02:10:20;;;;;;;3.83;3.53;;;;;;;12.29;87.58;102495.09;5030498;28;20531;-47
2022/07/17 02:12:48;;;;;;;6.33;4.20;;;;;;;12.26;87.47;102499.94;5029508;28;20468;-44
2022/07/17 02:15:17;;;;;;;3.40;3.20;;;;;;;12.22;87.67;102496.75;5030510;28;20544;-45
2022/07/17 02:17:44;;;;;;;4.07;3.77;;;;;;;12.19;87.68;102495.25;5030209;28;20591;-47
2022/07/17 02:20:13;;;;;;;6.93;3.90;;;;;;;12.16;87.63;102495.56;5030372;28;20428;-45
2022/07/17 02:22:41;;;;;;;4.50;3.33;;;;;;;12.13;87.96;102500.41;5027671;28;20563;-44
2022/07/17 02:25:10;;;;;;;10.53;3.80;;;;;;;12.10;87.95;102498.91;5030132;28;20428;-45
2022/07/17 02:27:39;;;;;;;4.23;3.83;;;;;;;12.07;88.12;102501.91;5030082;28;20482;-48
2022/07/17 02:30:10;;;;;;;4.13;3.80;;;;;;;12.05;88.02;102503.06;5033746;28;20440;-45
2022/07/17 02:32:40;;;;;;;5.13;4.03;;;;;;;12.00;88.40;102508.09;5034649;28;20995;-48
2022/07/17 02:35:09;;;;;;;5.67;4.40;;;;;;;12.00;88.45;102513.44;5027550;28;20428;-44
2022/07/17 02:37:38;;;;;;;4.43;4.03;;;;;;;11.98;88.90;102516.25;5035542;28;20470;-47
2022/07/17 02:40:07;;;;;;;6.50;3.80;;;;;;;11.95;88.41;102519.25;5035465;28;20438;-47
2022/07/17 02:42:35;;;;;;;5.83;3.60;;;;;;;11.95;88.77;102516.56;5034854;28;20547;-44
2022/07/17 02:45:03;;;;;;;4.97;4.57;;;;;;;11.95;89.17;102511.22;5035593;28;20806;-45
2022/07/17 02:47:33;;;;;;;5.87;3.83;;;;;;;11.97;89.60;102508.41;5035212;28;20993;-44
2022/07/17 02:50:04;;;;;;;3.90;3.60;;;;;;;11.98;89.58;102521.59;5035380;28;20526;-48
2022/07/17 02:52:33;;;;;;;4.50;3.53;;;;;;;12.01;89.73;102504.38;5034451;28;20973;-45
2022/07/17 02:55:01;;;;;;;4.40;4.10;;;;;;;12.03;90.12;102510.44;5035463;28;20440;-46
2022/07/17 02:57:29;;;;;;;5.63;4.40;;;;;;;12.03;90.35;102508.59;5035302;28;20455;-47
2022/07/17 02:59:56;;;;;;;5.80;4.00;;;;;;;12.08;90.79;102500.06;5035272;28;20436;-49
2022/07/17 03:02:24;;;;;;;4.47;4.07;;;;;;;12.10;90.48;102493.56;5034470;28;20502;-45
2022/07/17 03:04:52;;;;;;;4.50;4.13;;;;;;;12.11;90.28;102500.59;5035029;28;20434;-45
2022/07/17 03:07:21;;;;;;;7.63;4.20;;;;;;;12.12;90.31;102504.09;5034938;28;20646;-45
2022/07/17 03:09:49;;;;;;;4.20;3.87;;;;;;;12.15;90.65;102511.78;5035175;28;20432;-49
2022/07/17 03:12:16;;;;;;;4.80;4.33;;;;;;;12.15;90.45;102515.31;5034345;28;20583;-48
2022/07/17 03:14:44;;;;;;;4.20;4.00;;;;;;;12.17;90.89;102518.66;5034959;28;20431;-45
2022/07/17 03:17:11;;;;;;;4.17;3.83;;;;;;;12.20;91.14;102504.94;5034614;28;20551;-44
2022/07/17 03:19:39;;;;;;;3.73;3.43;;;;;;;12.26;91.19;102516.81;5034696;28;20493;-45
2022/07/17 03:22:07;;;;;;;4.43;4.13;;;;;;;12.32;91.40;102513.50;5034161;28;20482;-44
2022/07/17 03:24:36;;;;;;;3.67;3.43;;;;;;;12.40;91.80;102518.00;5034878;28;20528;-47
2022/07/17 03:27:04;;;;;;;5.27;3.77;;;;;;;12.47;91.67;102519.88;5034694;28;20550;-44
2022/07/17 03:29:32;;;;;;;6.03;3.93;;;;;;;12.56;91.36;102520.72;5034695;28;20526;-45
2022/07/17 03:32:00;;;;;;;11.30;4.90;;;;;;;12.62;91.51;102517.38;5033849;28;20472;-48
2022/07/17 03:34:27;;;;;;;4.23;3.77;;;;;;;12.67;90.83;102526.56;5034251;28;21015;-50
2022/07/17 03:36:55;;;;;;;5.00;3.50;;;;;;;12.72;90.73;102529.56;5034512;28;20452;-46
2022/07/17 03:39:23;;;;;;;5.40;3.90;;;;;;;12.75;90.00;102521.19;5033589;28;20523;-47
2022/07/17 03:41:52;;;;;;;6.97;4.50;;;;;;;12.77;89.98;102508.50;5033717;28;20458;-44
2022/07/17 03:44:19;;;;;;;4.10;3.80;;;;;;;12.79;89.46;102508.31;5034173;28;20531;-49
2022/07/17 03:46:47;;;;;;;5.43;3.97;;;;;;;12.83;90.01;102512.34;5033978;28;20452;-44
2022/07/17 03:49:15;;;;;;;3.67;3.47;;;;;;;12.86;89.69;102506.66;5034514;28;20532;-44
2022/07/17 03:51:43;;;;;;;4.53;3.50;;;;;;;12.89;89.54;102510.84;5033813;28;20547;-45
2022/07/17 03:54:11;;;;;;;6.20;3.93;;;;;;;12.96;89.31;102512.66;5033597;28;20535;-47
2022/07/17 03:56:39;;;;;;;4.10;3.67;;;;;;;13.01;89.12;102514.84;5032825;28;20466;-44
2022/07/17 03:59:08;;;;;;;4.20;3.70;;;;;;;13.05;89.32;102518.84;5030621;28;20440;-44
2022/07/17 04:01:36;;;;;;;5.53;4.53;;;;;;;13.07;88.69;102515.00;5033062;28;20470;-46
2022/07/17 04:04:04;;;;;;;4.80;3.90;;;;;;;13.10;88.69;102520.06;5033472;28;20435;-46
2022/07/17 04:06:31;;;;;;;4.50;4.20;;;;;;;13.12;88.79;102531.41;5033957;28;20456;-46
2022/07/17 04:08:59;;;;;;;8.03;4.23;;;;;;;13.19;88.91;102523.56;5033702;28;20483;-45
2022/07/17 04:11:27;;;;;;;6.70;4.27;;;;;;;13.23;88.51;102522.22;5033279;28;20542;-46
2022/07/17 04:13:55;;;;;;;4.67;4.27;;;;;;;13.29;88.52;102508.94;5033154;28;20980;-44
2022/07/17 04:16:24;;;;;;;4.20;3.80;;;;;;;13.34;88.69;102518.31;5032999;28;20502;-45
2022/07/17 04:18:53;;;;;;;4.60;4.07;;;;;;;13.39;88.57;102516.78;5033617;28;20810;-47
2022/07/17 04:21:20;;;;;;;4.87;4.40;;;;;;;13.44;88.16;102518.97;5033191;28;20885;-48
2022/07/17 04:23:48;;;;;;;4.80;4.07;;;;;;;13.48;88.09;102512.25;5033160;28;20439;-44
2022/07/17 04:26:16;;;;;;;5.23;3.77;;;;;;;13.54;88.33;102520.44;5033127;28;20555;-48
2022/07/17 04:28:44;;;;;;;4.60;4.10;;;;;;;13.60;87.98;102521.59;5033247;28;20527;-46
2022/07/17 04:31:12;;;;;;;7.77;4.27;;;;;;;13.66;87.67;102516.38;5032909;28;20498;-44
2022/07/17 04:33:41;;;;;;;5.17;4.63;;;;;;;13.71;87.29;102529.25;5029678;28;20476;-44
2022/07/17 04:36:09;;;;;;;4.57;4.20;;;;;;;13.71;86.88;102521.19;5031216;28;20470;-46
2022/07/17 04:38:37;;;;;;;4.47;4.17;;;;;;;13.75;87.46;102527.88;5032456;28;21177;-44
2022/07/17 04:41:04;;;;;;;5.13;4.70;;;;;;;13.75;86.95;102520.69;5031804;28;20464;-45
2022/07/17 04:43:32;;;;;;;4.30;4.10;;;;;;;13.81;87.11;102535.25;5032219;28;20837;-45
2022/07/17 04:46:00;;;;;;;5.13;4.43;;;;;;;13.84;87.25;102535.72;5032020;28;20455;-46
2022/07/17 04:48:28;;;;;;;7.57;4.60;;;;;;;13.88;87.06;102535.38;5032084;28;20456;-44
2022/07/17 04:50:57;;;;;;;3.90;3.60;;;;;;;13.91;87.07;102540.41;5031930;28;21018;-49
2022/07/17 04:53:24;;;;;;;9.13;4.70;;;;;;;13.99;87.43;102546.56;5031342;28;20852;-44
2022/07/17 04:55:52;;;;;;;4.97;4.20;;;;;;;14.15;87.86;102556.38;5031991;28;20539;-46
2022/07/17 04:58:19;;;;;;;5.07;4.63;;;;;;;14.16;87.17;102549.97;5032291;28;20432;-48
2022/07/17 05:00:47;;;;;;;7.33;4.33;;;;;;;14.24;87.39;102544.59;5032528;28;20868;-44
2022/07/17 05:03:15;;;;;;;4.77;4.27;;;;;;;14.23;85.82;102542.91;5031038;28;20464;-45
2022/07/17 05:05:43;;;;;;;4.87;4.10;;;;;;;14.25;85.79;102543.56;5031592;28;20462;-44
2022/07/17 05:08:12;;;;;;;9.07;5.07;;;;;;;14.33;86.40;102544.41;5031548;28;20933;-47
2022/07/17 05:10:39;;;;;;;4.63;4.20;;;;;;;14.75;88.46;102548.47;5032110;28;20443;-44
2022/07/17 05:13:07;;;;;;;7.60;4.77;;;;;;;15.69;90.99;102547.88;5031097;28;20483;-45
2022/07/17 05:15:35;;;;;;;4.60;4.20;;;;;;;17.15;88.42;102556.28;5031010;28;20436;-44
2022/07/17 05:18:07;;;;;;;4.80;3.97;;;;;;;18.77;85.44;102533.97;5031685;28;20443;-46
2022/07/17 05:20:35;;;;;;;4.60;3.87;;;;;;;20.19;74.41;102543.03;5031650;28;20802;-47
2022/07/17 05:23:03;;;;;;;4.27;3.97;;;;;;;21.59;68.93;102540.66;5031046;28;20456;-47
2022/07/17 05:25:32;;;;;;;4.70;4.30;;;;;;;22.65;60.28;102530.06;5031405;28;20507;-48
2022/07/17 05:27:59;;;;;;;4.80;4.50;;;;;;;23.53;58.04;102533.56;5031464;28;20518;-50
2022/07/17 05:30:27;;;;;;;8.43;4.40;;;;;;;24.39;48.18;102527.13;5031703;28;20980;-48
2022/07/17 05:32:55;;;;;;;5.20;4.00;;;;;;;25.02;47.66;102524.13;5030506;28;20989;-50
2022/07/17 05:35:22;;;;;;;4.43;3.83;;;;;;;25.45;46.40;102525.28;5031001;28;20805;-47
2022/07/17 05:37:50;;;;;;;5.13;3.80;;;;;;;26.04;47.65;102515.38;5031688;28;20424;-49
2022/07/17 05:40:18;;;;;;;5.87;3.60;;;;;;;26.60;46.80;102512.13;5031576;28;20959;-45
2022/07/17 05:42:47;;;;;;;5.83;3.90;;;;;;;26.31;45.19;102513.50;5030718;28;20459;-46
2022/07/17 05:45:15;;;;;;;5.37;4.20;;;;;;;26.63;41.70;102516.25;5031107;28;20509;-47
2022/07/17 05:47:42;;;;;;;3.73;3.20;;;;;;;26.22;43.74;102521.31;5031180;28;20456;-48
2022/07/17 05:50:10;;;;;;;3.97;3.67;;;;;;;26.65;38.50;102509.44;5031384;28;21016;-45
2022/07/17 05:52:37;;;;;;;4.10;3.80;;;;;;;26.75;40.65;102517.72;5030185;28;20542;-46
2022/07/17 05:55:06;;;;;;;4.97;4.13;;;;;;;26.13;40.58;102520.13;5030652;28;20474;-48
2022/07/17 05:57:34;;;;;;;4.43;4.00;;;;;;;26.39;41.92;102522.06;5031136;28;20984;-48
2022/07/17 06:00:04;;;;;;;4.80;4.00;;;;;;;26.00;42.36;102528.72;5031198;28;20444;-47
2022/07/17 06:02:31;;;;;;;4.43;4.13;;;;;;;26.32;41.32;102526.09;5030631;28;20490;-45
2022/07/17 06:04:59;;;;;;;5.83;4.30;;;;;;;26.18;41.23;102535.78;5030569;28;20436;-50
2022/07/17 06:07:27;;;;;;;5.07;3.80;;;;;;;25.69;41.42;102549.41;5023693;28;20460;-45
2022/07/17 06:09:55;;;;;;;6.00;4.40;;;;;;;26.02;41.45;102537.50;5030324;28;20527;-47
2022/07/17 06:12:22;;;;;;;4.47;4.03;;;;;;;24.88;42.93;102546.53;5031133;28;20689;-48
2022/07/17 06:14:50;;;;;;;8.63;4.93;;;;;;;24.65;43.71;102539.28;5031419;28;20228;-47
2022/07/17 06:17:19;;;;;;;4.10;3.70;;;;;;;24.45;43.31;102539.78;5031026;28;20558;-52
2022/07/17 06:19:46;;;;;;;6.33;3.57;;;;;;;23.56;46.97;102543.97;5031799;28;20477;-50
2022/07/17 06:22:14;;;;;;;7.60;4.60;;;;;;;22.75;48.11;102546.66;5031034;28;20538;-48
2022/07/17 06:24:41;;;;;;;4.47;4.07;;;;;;;22.22;49.80;102543.03;5031157;28;20423;-50
2022/07/17 06:27:09;;;;;;;6.00;4.57;;;;;;;21.81;51.11;102558.16;5031423;28;20542;-47
2022/07/17 06:29:38;;;;;;;5.43;4.37;;;;;;;20.41;54.91;102550.63;5031845;28;20854;-47
2022/07/17 06:32:14;;;;;;;5.40;5.00;;;;;;;19.65;58.87;102548.88;5030770;28;20448;-49
2022/07/17 06:34:43;;;;;;;5.60;5.10;;;;;;;20.17;58.88;102550.53;5031383;28;20478;-52
2022/07/17 06:37:11;;;;;;;6.30;5.40;;;;;;;20.79;56.01;102550.56;5031451;28;20820;-45
2022/07/17 06:39:38;;;;;;;6.07;5.50;;;;;;;21.72;54.10;102545.09;5031222;28;20787;-48
2022/07/17 06:42:06;;;;;;;4.93;4.43;;;;;;;22.30;51.04;102551.69;5029857;28;20558;-55
2022/07/17 06:44:34;;;;;;;6.10;4.70;;;;;;;22.13;51.36;102541.72;5031608;28;20779;-48
2022/07/17 06:47:02;;;;;;;4.77;4.27;;;;;;;22.20;51.08;102548.69;5043057;23;20526;-47
2022/07/17 06:49:30;;;;;;;4.93;4.50;;;;;;;22.47;50.64;102547.25;5011576;28;20515;-45
2022/07/17 06:51:59;;;;;;;5.63;4.60;;;;;;;23.52;49.08;102550.97;5010660;28;20555;-44
2022/07/17 06:54:27;;;;;;;7.30;4.70;;;;;;;23.27;47.36;102555.78;5011716;28;20472;-45
2022/07/17 06:56:54;;;;;;;4.67;4.13;;;;;;;22.55;48.55;102555.06;5011806;28;20545;-44
2022/07/17 06:59:22;;;;;;;4.33;4.00;;;;;;;22.44;51.27;102561.31;5011800;28;20801;-47
2022/07/17 07:01:50;;;;;;;8.77;4.67;;;;;;;21.34;53.10;102567.03;5010428;28;20472;-48
2022/07/17 07:04:17;;;;;;;5.00;4.50;;;;;;;21.46;52.04;102574.22;5011624;28;20451;-44
2022/07/17 07:06:45;;;;;;;4.80;4.30;;;;;;;21.49;51.58;102587.34;5011531;28;20456;-47
2022/07/17 07:09:14;;;;;;;7.30;4.27;;;;;;;21.34;52.19;102580.59;5011754;28;20523;-45
2022/07/17 07:11:43;;;;;;;4.83;4.43;;;;;;;20.72;53.22;102597.78;5010242;28;21011;-45
2022/07/17 07:14:12;;;;;;;5.17;4.63;;;;;;;20.16;56.14;102587.59;5011714;28;20563;-47
2022/07/17 07:16:40;;;;;;;4.33;4.03;;;;;;;21.29;53.28;102591.28;5015434;28;20465;-47
2022/07/17 07:19:07;;;;;;;10.00;4.30;;;;;;;21.38;51.59;102589.97;5015172;28;20901;-44
2022/07/17 07:21:35;;;;;;;7.53;5.27;;;;;;;21.16;53.01;102594.13;5013262;28;20548;-44
2022/07/17 07:24:03;;;;;;;5.03;4.70;;;;;;;21.22;53.10;102579.66;5014975;28;20440;-44
2022/07/17 07:26:32;;;;;;;5.17;4.70;;;;;;;20.41;55.15;102585.84;5014953;28;20463;-45
2022/07/17 07:29:00;;;;;;;4.97;4.40;;;;;;;20.71;57.03;102601.53;5015353;28;20531;-44
2022/07/17 07:31:27;;;;;;;6.50;4.23;;;;;;;21.35;52.69;102588.53;5013609;28;20821;-44
2022/07/17 07:33:56;;;;;;;4.20;3.60;;;;;;;20.69;55.27;102595.50;5014688;28;20476;-45
2022/07/17 07:36:23;;;;;;;5.70;5.20;;;;;;;20.51;55.48;102595.41;5015170;28;20486;-44
2022/07/17 07:38:56;;;;;;;4.70;4.40;;;;;;;20.51;54.33;102595.41;5014653;28;20424;-45
2022/07/17 07:41:24;;;;;;;4.67;4.37;;;;;;;20.35;55.84;102594.03;5013297;28;20969;-45
2022/07/17 07:43:54;;;;;;;4.63;4.23;;;;;;;20.39;54.99;102608.81;5014552;28;20478;-44
2022/07/17 07:46:21;;;;;;;5.77;4.47;;;;;;;20.95;54.81;102614.28;5014401;28;20468;-46
2022/07/17 07:48:50;;;;;;;5.20;4.07;;;;;;;21.51;53.82;102614.25;5014334;28;20436;-46
2022/07/17 07:51:18;;;;;;;4.13;3.73;;;;;;;21.78;50.54;102610.19;5013252;28;20571;-44
2022/07/17 07:54:06;;;;;;;6.93;4.47;;;;;;;22.43;50.13;102608.59;5013009;28;21005;-47
2022/07/17 07:56:33;;;;;;;5.17;4.70;;;;;;;22.13;50.34;102612.34;5014218;28;20461;-45
2022/07/17 07:59:03;;;;;;;5.33;4.83;;;;;;;21.97;50.29;102611.91;5014758;28;20440;-44
2022/07/17 08:01:31;;;;;;;4.63;4.17;;;;;;;22.20;50.86;102618.50;5013320;28;20461;-46
2022/07/17 08:03:59;;;;;;;5.67;3.70;;;;;;;22.13;49.35;102613.19;5013239;28;20448;-44
2022/07/17 08:06:27;;;;;;;5.87;4.20;;;;;;;21.95;49.61;102613.19;5012399;28;21177;-44
2022/07/17 08:08:54;;;;;;;4.80;4.43;;;;;;;21.36;51.47;102611.88;5014209;28;20436;-44
2022/07/17 08:11:22;;;;;;;5.03;4.00;;;;;;;21.17;52.42;102612.91;5012270;28;20548;-44
2022/07/17 08:13:50;;;;;;;5.63;4.33;;;;;;;21.05;53.79;102620.06;5014136;28;20439;-44
2022/07/17 08:16:19;;;;;;;4.70;4.30;;;;;;;21.06;54.39;102621.69;5013961;28;20452;-47
2022/07/17 08:18:47;;;;;;;8.13;4.17;;;;;;;21.59;53.41;102621.28;5014001;28;20938;-46
2022/07/17 08:21:14;;;;;;;5.70;4.33;;;;;;;21.97;52.34;102622.78;5013690;28;20467;-44
2022/07/17 08:23:42;;;;;;;4.47;3.83;;;;;;;21.58;51.91;102620.44;5013722;28;20520;-47
2022/07/17 08:26:10;;;;;;;5.70;4.50;;;;;;;21.21;52.55;102624.94;5012343;28;20453;-46
2022/07/17 08:28:38;;;;;;;5.03;3.63;;;;;;;20.99;53.71;102629.09;5013908;28;20968;-46
2022/07/17 08:31:07;;;;;;;3.77;3.47;;;;;;;21.03;53.28;102622.16;5013295;28;20432;-46
2022/07/17 08:33:36;;;;;;;4.03;3.83;;;;;;;21.31;52.57;102619.88;5013752;28;20483;-44
2022/07/17 08:36:04;;;;;;;5.23;3.50;;;;;;;21.23;52.85;102641.88;5013454;28;20498;-44
2022/07/17 08:38:31;;;;;;;3.87;3.57;;;;;;;20.93;51.93;102633.50;5013143;28;20440;-45
2022/07/17 08:40:59;;;;;;;4.00;3.80;;;;;;;21.25;51.57;102634.31;5013459;28;20439;-45
2022/07/17 08:43:27;;;;;;;3.43;3.23;;;;;;;20.85;52.93;102646.47;5013808;28;20513;-46
2022/07/17 08:45:55;;;;;;;4.53;3.63;;;;;;;20.47;53.58;102642.94;5013389;28;20953;-44
2022/07/17 08:48:25;;;;;;;4.80;3.57;;;;;;;20.02;54.95;102647.47;5013560;28;20437;-46
2022/07/17 08:50:55;;;;;;;4.67;3.70;;;;;;;20.36;56.17;102648.00;5013615;28;20511;-44
2022/07/17 08:53:23;;;;;;;6.87;4.03;;;;;;;20.84;56.68;102640.25;5012831;28;20527;-48
2022/07/17 08:55:51;;;;;;;4.23;3.40;;;;;;;20.39;55.39;102647.59;5013492;28;20480;-44
2022/07/17 08:58:19;;;;;;;3.60;3.30;;;;;;;21.09;53.81;102648.44;5013371;28;20475;-48
2022/07/17 09:00:47;;;;;;;3.57;3.37;;;;;;;21.75;51.28;102651.38;5012791;28;20811;-45
2022/07/17 09:03:16;;;;;;;3.83;3.63;;;;;;;21.68;52.60;102652.53;5012696;28;20547;-47
2022/07/17 09:05:45;;;;;;;4.63;3.93;;;;;;;21.92;52.44;102646.25;5013016;28;20440;-48
2022/07/17 09:08:20;;;;;;;3.87;3.67;;;;;;;21.67;51.23;102651.69;5013357;28;20527;-47
2022/07/17 09:10:51;;;;;;;4.40;4.10;;;;;;;21.26;54.13;102662.28;5013466;28;20835;-45
2022/07/17 09:13:21;;;;;;;4.03;3.63;;;;;;;21.37;51.25;102664.28;5012511;28;20567;-43
2022/07/17 09:15:51;;;;;;;3.50;3.17;;;;;;;21.43;52.04;102656.09;5012861;28;20476;-47
2022/07/17 09:18:19;;;;;;;4.00;3.60;;;;;;;21.07;51.57;102652.38;5013195;28;20535;-45
2022/07/17 09:20:50;;;;;;;4.20;3.50;;;;;;;21.29;51.19;102664.56;5012933;28;20432;-46
2022/07/17 09:23:20;;;;;;;3.70;3.50;;;;;;;21.17;51.56;102661.75;5012245;28;20464;-44
2022/07/17 09:25:50;;;;;;;3.90;3.50;;;;;;;20.77;53.46;102660.28;5012902;28;20543;-45
2022/07/17 09:28:20;;;;;;;3.60;3.30;;;;;;;20.43;54.45;102658.78;5012887;28;20535;-44
2022/07/17 09:30:49;;;;;;;5.17;3.47;;;;;;;19.95;57.14;102668.34;5012778;28;20451;-44
2022/07/17 09:33:18;;;;;;;5.43;3.10;;;;;;;20.18;54.95;102664.09;5011935;28;20464;-45
2022/07/17 09:35:49;;;;;;;3.13;2.90;;;;;;;20.48;53.13;102655.47;5012439;28;20981;-45
2022/07/17 09:38:29;;;;;;;3.40;3.20;;;;;;;20.92;52.55;102650.81;5012724;28;20444;-45
2022/07/17 09:41:11;;;;;;;3.33;3.13;;;;;;;20.52;53.17;102649.38;5012163;28;20419;-44
2022/07/17 09:43:45;;;;;;;4.23;3.20;;;;;;;20.63;52.97;102650.59;5012596;28;20432;-46
2022/07/17 09:46:16;;;;;;;3.43;3.23;;;;;;;20.99;54.59;102656.19;5012250;28;20460;-44
2022/07/17 09:48:47;;;;;;;3.73;3.53;;;;;;;21.05;52.67;102649.06;5012780;28;20506;-44
2022/07/17 09:51:18;;;;;;;2.97;2.73;;;;;;;21.69;51.26;102655.00;5012012;28;20434;-46
2022/07/17 09:53:48;;;;;;;2.90;2.70;;;;;;;20.70;50.41;102654.06;5012122;28;20433;-44
2022/07/17 09:56:21;;;;;;;3.30;3.10;;;;;;;20.85;53.14;102651.91;5012537;28;20480;-44
2022/07/17 09:58:53;;;;;;;3.10;3.00;;;;;;;21.23;53.21;102652.72;5011758;28;20523;-45
2022/07/17 10:01:21;;;;;;;3.10;3.00;;;;;;;21.19;52.53;102659.63;5011807;28;20453;-44
2022/07/17 10:03:52;;;;;;;3.10;2.90;;;;;;;21.62;53.07;102645.28;5011903;28;20444;-44
2022/07/17 10:06:21;;;;;;;3.33;3.13;;;;;;;21.69;51.96;102646.00;5012117;28;20543;-44
2022/07/17 10:08:51;;;;;;;3.83;3.53;;;;;;;21.02;51.92;102650.34;5012078;28;20802;-44
2022/07/17 10:11:21;;;;;;;3.80;3.00;;;;;;;21.28;51.63;102639.31;5011792;28;20535;-44
2022/07/17 10:13:51;;;;;;;3.50;3.20;;;;;;;21.63;51.15;102647.75;5012245;28;20431;-44
2022/07/17 10:16:25;;;;;;;4.60;3.40;;;;;;;21.40;52.55;102651.09;5011856;28;20488;-46
2022/07/17 10:18:54;;;;;;;3.50;3.10;;;;;;;21.27;53.34;102639.50;5012095;28;20767;-45
2022/07/17 10:21:23;;;;;;;3.37;3.07;;;;;;;21.11;54.20;102651.78;5011411;28;20466;-45
2022/07/17 10:24:10;;;;;;;3.63;3.27;;;;;;;21.14;54.35;102647.78;5011730;28;20428;-46
2022/07/17 10:26:43;;;;;;;3.37;2.90;;;;;;;21.45;50.89;102642.28;5010364;28;20460;-47
2022/07/17 10:29:30;;;;;;;7.67;3.73;;;;;;;21.61;52.13;102647.16;4991708;28;20871;-44
2022/07/17 10:31:59;;;;;;;3.50;3.30;;;;;;;21.74;52.05;102649.75;4991937;28;20461;-43
2022/07/17 10:34:42;;;;;;;3.30;3.00;;;;;;;21.92;52.29;102644.34;4992203;28;20430;-44
2022/07/17 10:37:22;;;;;;;3.90;3.50;;;;;;;21.75;52.60;102651.38;4986788;28;20473;-44
2022/07/17 10:39:55;;;;;;;4.17;3.70;;;;;;;21.54;54.24;102654.50;4992006;28;20442;-45
2022/07/17 10:42:54;;;;;;;3.53;3.13;;;;;;;21.48;56.05;102653.53;4991672;28;20544;-44
2022/07/17 10:45:24;;;;;;;4.53;3.17;;;;;;;21.55;54.79;102655.34;4988401;28;20968;-44
2022/07/17 10:47:54;;;;;;;4.13;3.90;;;;;;;21.80;54.49;102651.53;4991930;28;20507;-44
2022/07/17 10:50:25;;;;;;;3.87;3.57;;;;;;;21.80;54.27;102656.97;4993955;28;20537;-44
2022/07/17 10:53:04;;;;;;;4.53;4.23;;;;;;;21.72;52.48;102649.13;4995358;28;20457;-44
2022/07/17 10:55:35;;;;;;;3.43;3.13;;;;;;;21.16;55.81;102653.81;4995696;28;20439;-47
2022/07/17 10:58:03;;;;;;;4.30;4.00;;;;;;;21.40;54.68;102653.81;4995697;28;20536;-44
2022/07/17 11:00:32;;;;;;;4.47;3.67;;;;;;;21.36;55.06;102649.88;4995314;28;20970;-43
2022/07/17 11:03:09;;;;;;;4.77;3.53;;;;;;;21.38;55.65;102661.38;4995090;28;20461;-47
2022/07/17 11:05:37;;;;;;;2.97;2.87;;;;;;;21.44;56.13;102652.31;4995571;28;21131;-44
2022/07/17 11:08:09;;;;;;;3.83;3.40;;;;;;;21.70;55.99;102648.53;4995485;28;21064;-46
2022/07/17 11:10:38;;;;;;;4.37;3.97;;;;;;;21.64;55.20;102648.59;4995315;28;20437;-44
2022/07/17 11:13:11;;;;;;;9.40;4.00;;;;;;;22.08;53.54;102642.91;4994268;28;20909;-44
2022/07/17 11:15:41;;;;;;;6.10;3.87;;;;;;;22.30;53.62;102654.16;4995139;28;20528;-45
2022/07/17 11:18:14;;;;;;;4.23;3.93;;;;;;;23.07;50.83;102640.53;4995085;28;20536;-47
2022/07/17 11:20:56;;;;;;;3.60;3.40;;;;;;;22.70;52.34;102636.25;4995437;28;20440;-44
2022/07/17 11:23:26;;;;;;;7.00;4.20;;;;;;;22.61;51.66;102643.88;4995047;28;20449;-48
2022/07/17 11:26:01;;;;;;;4.70;4.10;;;;;;;23.09;53.87;102645.72;4995375;28;20528;-47
2022/07/17 11:28:37;;;;;;;4.53;4.13;;;;;;;23.51;50.78;102643.78;4995346;28;20437;-44
2022/07/17 11:31:17;;;;;;;4.27;4.07;;;;;;;23.40;49.63;102639.16;4993600;28;20432;-44
2022/07/17 11:33:49;;;;;;;4.43;4.13;;;;;;;23.49;48.72;102641.31;4994127;28;21079;-44